Terminal Aerodrome Forecast
Issued by NWS Miami, FL

Home | Current Version | Previous Version | Text Only | Print | Product List | Glossary On
Versions: 1 2 3 4 5 6 7 8 9 10 11 12 13 14 15 16 17 18 19 20 21 22 23 24 25 26 27 28 29 30 31 32 33
000
FTUS42 KMFL 240308 AAB
TAFPBI
TAF AMD
KPBI 240308Z 2403/2424 21006KT P6SM VCSH FEW030 SCT050 BKN250
     FM240600 22005KT P6SM SCT025 SCT250
     FM241400 22010KT P6SM VCSH SCT035 SCT250
     FM241900 24012KT P6SM VCTS SCT030CB BKN050 BKN250=

USA.gov is the U.S. government's official web portal to all federal, state and local government web resources and services.